Time;durP1;ratioP1;P1;durP2;ratioP2;P2;SDS_P1;SDS_P2;PMS_P1;PMS_P2;Temp;Humidity;BMP_temperature;BMP_pressure;BME280_temperature;BME280_humidity;BME280_pressure;Samples;Min_cycle;Max_cycle;Signal;HPM_P1;HPM_P2
2023/10/27 00:00:50;;;;;;;2.65;1.10;;;15.40;99.90;;;;;;7385057;19;20002;-73
2023/10/27 00:03:18;;;;;;;2.45;1.20;;;15.40;99.90;;;;;;7404774;19;20379;-73
2023/10/27 00:05:50;;;;;;;2.28;1.20;;;15.40;99.90;;;;;;7383760;19;20216;-73
2023/10/27 00:08:18;;;;;;;2.33;1.40;;;15.50;99.90;;;;;;7383839;19;20011;-74
2023/10/27 00:10:47;;;;;;;1.75;0.93;;;15.50;99.90;;;;;;7384209;19;20083;-73
2023/10/27 00:13:16;;;;;;;4.15;1.70;;;15.60;99.90;;;;;;7384529;19;20024;-74
2023/10/27 00:15:45;;;;;;;2.15;1.40;;;15.60;99.90;;;;;;7384979;19;20027;-73
2023/10/27 00:18:14;;;;;;;3.15;1.80;;;15.60;99.90;;;;;;7407883;19;20006;-74
2023/10/27 00:20:43;;;;;;;5.75;1.80;;;15.70;99.90;;;;;;7383123;19;20019;-74
2023/10/27 00:23:15;;;;;;;7.28;2.05;;;15.70;99.90;;;;;;7382623;19;20006;-74
2023/10/27 00:25:45;;;;;;;7.25;2.70;;;15.60;99.90;;;;;;7383684;19;20393;-74
2023/10/27 00:28:14;;;;;;;4.90;2.17;;;15.60;99.90;;;;;;7383474;19;20006;-75
2023/10/27 00:30:42;;;;;;;9.20;2.53;;;15.70;99.90;;;;;;7383781;19;20435;-73
2023/10/27 00:33:11;;;;;;;8.50;2.10;;;15.70;99.90;;;;;;7405295;19;20078;-74
2023/10/27 00:35:39;;;;;;;3.60;1.73;;;15.70;99.90;;;;;;7382757;19;20074;-74
2023/10/27 00:38:08;;;;;;;9.10;2.08;;;15.70;99.90;;;;;;7383159;19;20024;-73
2023/10/27 00:40:39;;;;;;;5.70;2.20;;;15.80;99.90;;;;;;7383392;19;20020;-73
2023/10/27 00:43:09;;;;;;;10.13;2.42;;;15.80;99.90;;;;;;7382920;19;20015;-74
2023/10/27 00:45:37;;;;;;;4.68;2.05;;;15.80;99.90;;;;;;7380941;19;20426;-74
2023/10/27 00:48:07;;;;;;;7.72;2.30;;;15.80;99.90;;;;;;7404215;19;20383;-74
2023/10/27 00:50:36;;;;;;;14.23;2.20;;;15.70;99.90;;;;;;7382561;19;20369;-73
2023/10/27 00:53:05;;;;;;;5.05;2.08;;;15.80;99.90;;;;;;7382866;19;20074;-73
2023/10/27 00:55:34;;;;;;;13.65;2.38;;;15.60;99.90;;;;;;7382697;19;20062;-72
2023/10/27 00:58:06;;;;;;;8.35;2.47;;;15.60;99.90;;;;;;7383007;19;20007;-74
2023/10/27 01:00:35;;;;;;;8.98;1.90;;;15.60;99.90;;;;;;7382363;19;20010;-73
2023/10/27 01:03:04;;;;;;;14.45;2.10;;;15.50;99.90;;;;;;7403204;19;20358;-73
2023/10/27 01:05:32;;;;;;;6.88;1.95;;;15.60;99.90;;;;;;7381990;19;20109;-73
2023/10/27 01:08:02;;;;;;;6.45;1.90;;;15.50;99.90;;;;;;7381510;19;20042;-73
2023/10/27 01:10:31;;;;;;;7.72;2.08;;;15.50;99.90;;;;;;7382543;19;19999;-73
2023/10/27 01:13:00;;;;;;;9.02;1.77;;;15.50;99.90;;;;;;7382163;19;20024;-73
2023/10/27 01:15:31;;;;;;;17.50;2.25;;;15.40;99.90;;;;;;7385832;19;20011;-73
2023/10/27 01:17:59;;;;;;;4.97;1.95;;;15.40;99.90;;;;;;7403158;19;20011;-73
2023/10/27 01:20:28;;;;;;;9.80;2.00;;;15.40;99.90;;;;;;7381471;19;20003;-73
2023/10/27 01:22:59;;;;;;;8.13;1.85;;;15.40;99.90;;;;;;7381636;19;20020;-73
2023/10/27 01:25:28;;;;;;;13.07;1.75;;;15.40;99.90;;;;;;7382026;19;20024;-73
2023/10/27 01:27:57;;;;;;;10.50;2.22;;;15.40;99.90;;;;;;7381629;19;19999;-73
2023/10/27 01:30:27;;;;;;;6.30;2.08;;;15.30;99.90;;;;;;7381414;19;20017;-73
2023/10/27 01:32:55;;;;;;;5.88;2.22;;;15.10;99.90;;;;;;7402640;19;20385;-72
2023/10/27 01:35:24;;;;;;;9.55;2.30;;;15.20;99.90;;;;;;7380932;19;20030;-72
2023/10/27 01:37:53;;;;;;;13.90;2.30;;;15.20;99.90;;;;;;7381406;19;20003;-73
2023/10/27 01:40:24;;;;;;;3.80;2.38;;;15.20;99.90;;;;;;7381712;19;20050;-73
2023/10/27 01:42:52;;;;;;;;;;;15.10;99.90;;;;;;7382222;19;19999;-73
2023/10/27 01:45:21;;;;;;;8.98;2.70;;;15.10;99.90;;;;;;7401906;19;19920;-73
2023/10/27 01:47:50;;;;;;;11.13;2.47;;;15.10;99.90;;;;;;7384023;19;20013;-73
2023/10/27 01:50:19;;;;;;;7.72;2.42;;;15.10;99.90;;;;;;7384228;19;20057;-73
2023/10/27 01:52:47;;;;;;;10.18;2.78;;;15.10;99.90;;;;;;7384942;19;20459;-73
2023/10/27 01:55:18;;;;;;;7.93;2.33;;;15.10;99.90;;;;;;7384784;19;20074;-73
2023/10/27 01:57:49;;;;;;;19.58;2.58;;;15.10;99.90;;;;;;7383378;19;20014;-73
2023/10/27 02:00:18;;;;;;;13.60;2.42;;;15.10;99.90;;;;;;7403904;19;20084;-73
2023/10/27 02:02:47;;;;;;;7.30;2.30;;;15.10;99.90;;;;;;7380358;19;20683;-73
2023/10/27 02:05:16;;;;;;;12.20;2.67;;;15.10;99.90;;;;;;7379750;19;20067;-73
2023/10/27 02:07:44;;;;;;;13.48;2.72;;;15.00;99.90;;;;;;7380735;19;20009;-73
2023/10/27 02:10:13;;;;;;;14.50;2.70;;;15.00;99.90;;;;;;7381612;19;20015;-72
2023/10/27 02:12:42;;;;;;;17.23;2.50;;;15.00;99.90;;;;;;7380315;19;20015;-73
2023/10/27 02:15:14;;;;;;;10.10;2.40;;;15.00;99.90;;;;;;7401534;19;20006;-73
2023/10/27 02:17:42;;;;;;;13.25;2.17;;;14.90;99.90;;;;;;7379431;19;20358;-73
2023/10/27 02:20:12;;;;;;;8.50;2.13;;;14.90;99.90;;;;;;7379828;19;20013;-74
2023/10/27 02:22:40;;;;;;;13.32;2.35;;;14.90;99.90;;;;;;7379982;19;20429;-73
2023/10/27 02:25:10;;;;;;;13.23;2.92;;;14.90;99.90;;;;;;7379170;19;20082;-73
2023/10/27 02:27:41;;;;;;;9.23;2.15;;;14.90;99.90;;;;;;7379676;19;20240;-73
2023/10/27 02:30:13;;;;;;;11.93;2.40;;;14.90;99.90;;;;;;7401264;19;20003;-74
2023/10/27 02:32:42;;;;;;;8.75;2.40;;;14.90;99.90;;;;;;7378868;19;20413;-73
2023/10/27 02:35:10;;;;;;;15.48;2.78;;;14.90;99.90;;;;;;7379360;19;20086;-73
2023/10/27 02:37:39;;;;;;;10.65;2.65;;;14.80;99.90;;;;;;7379753;19;20789;-73
2023/10/27 02:40:09;;;;;;;13.88;2.55;;;14.80;99.90;;;;;;7379921;19;20006;-73
2023/10/27 02:42:41;;;;;;;13.05;2.50;;;14.60;99.90;;;;;;7379132;19;20006;-73
2023/10/27 02:45:13;;;;;;;12.18;2.13;;;14.60;99.90;;;;;;7399060;19;20006;-73
2023/10/27 02:47:41;;;;;;;14.52;2.40;;;14.60;99.90;;;;;;7378625;19;20075;-73
2023/10/27 02:50:11;;;;;;;19.42;3.47;;;14.70;99.90;;;;;;7379018;19;20276;-74
2023/10/27 02:52:40;;;;;;;11.48;2.58;;;14.60;99.90;;;;;;7379283;19;20240;-73
2023/10/27 02:55:09;;;;;;;11.75;2.60;;;14.70;99.90;;;;;;7378847;19;20350;-74
2023/10/27 02:57:38;;;;;;;18.85;2.85;;;14.70;99.90;;;;;;7379156;19;20014;-74
2023/10/27 03:00:09;;;;;;;18.15;2.83;;;14.70;99.90;;;;;;7400914;19;20350;-74
2023/10/27 03:02:40;;;;;;;13.32;2.63;;;14.80;99.90;;;;;;7378412;19;20391;-73
2023/10/27 03:05:09;;;;;;;13.57;2.80;;;14.50;99.90;;;;;;7379102;19;20006;-73
2023/10/27 03:07:38;;;;;;;12.55;2.50;;;14.60;99.90;;;;;;7378364;19;20296;-74
2023/10/27 03:10:07;;;;;;;17.05;3.05;;;14.70;99.90;;;;;;7378756;19;20010;-74
2023/10/27 03:12:36;;;;;;;14.43;2.72;;;14.70;99.90;;;;;;7378709;19;20020;-73
2023/10/27 03:15:08;;;;;;;16.17;3.30;;;14.80;99.90;;;;;;7399774;19;20070;-74
2023/10/27 03:17:40;;;;;;;17.75;3.17;;;14.80;99.90;;;;;;7377718;19;20003;-73
2023/10/27 03:20:10;;;;;;;18.52;2.78;;;14.80;99.90;;;;;;7378194;19;20073;-73
2023/10/27 03:22:40;;;;;;;19.02;2.97;;;14.80;99.90;;;;;;7377967;19;20014;-73
2023/10/27 03:25:10;;;;;;;14.70;3.15;;;14.80;99.90;;;;;;7376945;19;20026;-73
2023/10/27 03:27:38;;;;;;;15.73;3.35;;;14.90;99.90;;;;;;7377714;19;20027;-73
2023/10/27 03:30:09;;;;;;;22.80;3.20;;;14.90;99.90;;;;;;7398848;19;20319;-73
2023/10/27 03:32:40;;;;;;;21.52;3.38;;;14.90;99.90;;;;;;7377242;19;20006;-73
2023/10/27 03:35:10;;;;;;;23.80;3.70;;;15.00;99.90;;;;;;7377602;19;20074;-73
2023/10/27 03:37:39;;;;;;;17.70;2.92;;;15.00;99.90;;;;;;7376853;19;20059;-74
2023/10/27 03:40:09;;;;;;;17.30;2.95;;;15.00;99.90;;;;;;7377727;19;20013;-74
2023/10/27 03:42:37;;;;;;;16.90;3.10;;;15.00;99.90;;;;;;7376723;19;20431;-74
2023/10/27 03:45:10;;;;;;;11.68;2.88;;;15.00;99.90;;;;;;7397612;19;20014;-73
2023/10/27 03:47:41;;;;;;;20.92;3.60;;;15.10;99.90;;;;;;7376583;19;20003;-74
2023/10/27 03:50:10;;;;;;;14.10;3.20;;;15.10;99.90;;;;;;7377219;19;20110;-74
2023/10/27 03:52:39;;;;;;;17.58;3.63;;;15.10;99.90;;;;;;7377274;19;20533;-74
2023/10/27 03:55:11;;;;;;;16.45;3.58;;;15.10;99.90;;;;;;7377363;19;20409;-74
2023/10/27 03:57:43;;;;;;;18.35;3.65;;;15.10;99.90;;;;;;7377616;19;20007;-73
2023/10/27 04:00:13;;;;;;;14.45;3.47;;;15.10;99.90;;;;;;7398886;19;20011;-73
2023/10/27 04:02:46;;;;;;;25.97;3.20;;;15.10;99.90;;;;;;7377450;19;20070;-74
2023/10/27 04:05:14;;;;;;;21.98;3.22;;;15.00;99.90;;;;;;7375179;19;20010;-73
2023/10/27 04:07:43;;;;;;;18.08;3.17;;;15.00;99.90;;;;;;7376899;19;20098;-73
2023/10/27 04:10:12;;;;;;;22.30;3.30;;;15.00;99.90;;;;;;7376443;19;20366;-73
2023/10/27 04:12:40;;;;;;;21.63;3.35;;;15.00;99.90;;;;;;7376479;19;20252;-73
2023/10/27 04:15:11;;;;;;;35.85;4.20;;;15.00;99.90;;;;;;7395916;19;20121;-73
2023/10/27 04:17:39;;;;;;;19.13;3.83;;;14.90;99.90;;;;;;7376102;19;20003;-73
2023/10/27 04:20:12;;;;;;;24.67;3.97;;;14.90;99.90;;;;;;7378831;19;20016;-73
2023/10/27 04:22:40;;;;;;;18.17;2.97;;;14.90;99.90;;;;;;7386177;19;20007;-73
2023/10/27 04:25:09;;;;;;;21.42;3.08;;;14.90;99.90;;;;;;7385358;19;20010;-73
2023/10/27 04:27:38;;;;;;;11.32;3.67;;;14.90;99.90;;;;;;7385476;19;20011;-73
2023/10/27 04:30:11;;;;;;;22.33;3.80;;;14.90;99.90;;;;;;7405598;19;20006;-73
2023/10/27 04:32:41;;;;;;;27.08;3.72;;;14.90;99.90;;;;;;7382687;19;19999;-73
2023/10/27 04:35:13;;;;;;;21.87;3.30;;;14.80;99.90;;;;;;7383131;19;20002;-73
2023/10/27 04:37:42;;;;;;;36.13;3.92;;;14.80;99.90;;;;;;7383191;19;20003;-73
2023/10/27 04:40:14;;;;;;;19.55;3.63;;;14.80;99.90;;;;;;7381961;19;20374;-73
2023/10/27 04:42:43;;;;;;;15.38;3.55;;;14.80;99.90;;;;;;7383255;19;20135;-73
2023/10/27 04:45:12;;;;;;;17.45;3.53;;;14.80;99.90;;;;;;7402980;19;20059;-73
2023/10/27 04:47:43;;;;;;;28.80;4.05;;;14.80;99.90;;;;;;7382212;19;20062;-74
2023/10/27 04:50:14;;;;;;;21.80;3.53;;;14.90;99.90;;;;;;7382163;19;20023;-74
2023/10/27 04:52:46;;;;;;;17.60;3.13;;;14.90;99.90;;;;;;7383040;19;20006;-74
2023/10/27 04:55:15;;;;;;;24.55;3.70;;;15.00;99.90;;;;;;7381139;19;20441;-74
2023/10/27 04:57:44;;;;;;;25.20;3.28;;;15.00;99.90;;;;;;7382560;19;21435;-72
2023/10/27 05:00:14;;;;;;;19.20;3.05;;;15.10;99.90;;;;;;7406945;19;20481;-73
2023/10/27 05:02:43;;;;;;;30.30;4.10;;;15.10;99.90;;;;;;7381834;19;20010;-74
2023/10/27 05:05:14;;;;;;;13.50;3.10;;;15.10;99.90;;;;;;7381032;19;20011;-73
2023/10/27 05:07:44;;;;;;;22.73;4.45;;;15.10;99.90;;;;;;7382198;19;20090;-73
2023/10/27 05:10:13;;;;;;;14.95;2.72;;;15.20;99.90;;;;;;7382418;19;20014;-73
2023/10/27 05:12:41;;;;;;;19.02;3.13;;;15.20;99.90;;;;;;7383594;19;20014;-72
2023/10/27 05:15:11;;;;;;;15.10;2.85;;;15.20;99.90;;;;;;7404375;19;20027;-72
2023/10/27 05:17:39;;;;;;;17.77;2.67;;;15.10;99.90;;;;;;7381432;19;20106;-73
2023/10/27 05:20:10;;;;;;;14.82;2.67;;;15.10;99.90;;;;;;7381528;19;20026;-73
2023/10/27 05:22:41;;;;;;;20.52;3.22;;;15.10;99.90;;;;;;7382087;19;20002;-72
2023/10/27 05:25:10;;;;;;;28.77;3.55;;;15.20;99.90;;;;;;7381622;19;20010;-72
2023/10/27 05:27:39;;;;;;;16.65;3.22;;;15.20;99.90;;;;;;7381872;19;20087;-73
2023/10/27 05:30:09;;;;;;;19.75;2.90;;;15.10;99.90;;;;;;7403120;19;20023;-73
2023/10/27 05:32:38;;;;;;;16.75;3.20;;;15.20;99.90;;;;;;7379688;19;20044;-73
2023/10/27 05:35:08;;;;;;;25.88;3.28;;;15.20;99.90;;;;;;7381141;19;20030;-73
2023/10/27 05:37:37;;;;;;;18.00;2.85;;;15.20;99.90;;;;;;7381201;19;20010;-73
2023/10/27 05:40:10;;;;;;;15.40;2.70;;;15.10;99.90;;;;;;7381419;19;20028;-73
2023/10/27 05:42:39;;;;;;;12.55;2.72;;;15.10;99.90;;;;;;7380938;19;20668;-73
2023/10/27 05:45:11;;;;;;;21.15;2.58;;;15.20;99.90;;;;;;7401320;19;20011;-73
2023/10/27 05:47:40;;;;;;;29.30;2.70;;;15.20;99.90;;;;;;7380343;19;20393;-73
2023/10/27 05:50:11;;;;;;;14.73;2.70;;;15.20;99.90;;;;;;7380712;19;20485;-73
2023/10/27 05:52:39;;;;;;;20.67;3.00;;;15.20;99.90;;;;;;7381551;19;20091;-73
2023/10/27 05:55:11;;;;;;;14.77;2.92;;;15.30;99.90;;;;;;7381392;19;20268;-73
2023/10/27 05:57:39;;;;;;;20.90;3.15;;;15.20;99.90;;;;;;7380641;19;20006;-73
2023/10/27 06:00:12;;;;;;;9.90;2.42;;;15.20;99.90;;;;;;7402129;19;20023;-73
2023/10/27 06:02:42;;;;;;;11.32;2.15;;;15.20;99.90;;;;;;7379662;19;20098;-72
2023/10/27 06:05:13;;;;;;;7.93;1.90;;;15.20;99.90;;;;;;7378979;19;20074;-74
2023/10/27 06:07:42;;;;;;;15.55;2.45;;;15.20;99.90;;;;;;7380321;19;20409;-73
2023/10/27 06:10:14;;;;;;;13.90;2.45;;;15.10;99.90;;;;;;7382416;19;20034;-73
2023/10/27 06:12:42;;;;;;;28.58;2.78;;;15.10;99.90;;;;;;7380886;19;20099;-73
2023/10/27 06:15:12;;;;;;;20.92;2.60;;;14.80;99.90;;;;;;7403733;19;20019;-74
2023/10/27 06:17:40;;;;;;;13.65;2.03;;;14.70;99.90;;;;;;7384855;19;20007;-73
2023/10/27 06:20:10;;;;;;;8.70;2.38;;;14.80;99.90;;;;;;7379832;19;20009;-73
2023/10/27 06:22:39;;;;;;;11.52;2.70;;;14.90;99.90;;;;;;7379433;19;19999;-74
2023/10/27 06:25:09;;;;;;;17.50;3.17;;;14.90;99.90;;;;;;7379086;19;20047;-74
2023/10/27 06:27:41;;;;;;;13.48;3.00;;;14.90;99.90;;;;;;7378849;19;20357;-73
2023/10/27 06:30:10;;;;;;;15.45;3.10;;;14.90;99.90;;;;;;7400610;19;20291;-73
2023/10/27 06:32:39;;;;;;;12.00;3.05;;;14.70;99.90;;;;;;7378666;19;20700;-73
2023/10/27 06:35:08;;;;;;;26.33;3.67;;;14.90;99.90;;;;;;7379023;19;20078;-73
2023/10/27 06:37:37;;;;;;;24.42;3.65;;;14.90;99.90;;;;;;7379684;19;20044;-74
2023/10/27 06:40:08;;;;;;;17.15;4.90;;;14.90;99.90;;;;;;7379522;19;20397;-74
2023/10/27 06:42:37;;;;;;;22.02;3.38;;;15.00;99.90;;;;;;7377295;19;20386;-73
2023/10/27 06:45:09;;;;;;;17.05;3.30;;;15.00;99.90;;;;;;7399543;19;20027;-73
2023/10/27 06:47:39;;;;;;;12.73;3.28;;;14.90;99.90;;;;;;7378436;19;20441;-73
2023/10/27 06:50:09;;;;;;;28.88;3.40;;;15.00;99.90;;;;;;7378618;19;20005;-73
2023/10/27 06:52:37;;;;;;;9.85;2.67;;;14.80;99.90;;;;;;7378694;19;20016;-74
2023/10/27 06:55:07;;;;;;;17.75;3.50;;;14.80;99.90;;;;;;7378908;19;20007;-74
2023/10/27 06:57:37;;;;;;;15.13;2.58;;;14.90;99.90;;;;;;7379318;19;20031;-74
2023/10/27 07:00:11;;;;;;;14.60;2.90;;;14.90;99.90;;;;;;7404628;19;20003;-73
2023/10/27 07:02:40;;;;;;;20.20;2.97;;;14.80;99.90;;;;;;7378390;19;20006;-73
2023/10/27 07:05:13;;;;;;;20.63;3.53;;;14.90;99.90;;;;;;7377991;19;20011;-73
2023/10/27 07:07:44;;;;;;;18.30;3.40;;;14.90;99.90;;;;;;7378409;19;20002;-74
2023/10/27 07:10:13;;;;;;;14.40;3.00;;;14.80;99.90;;;;;;7379684;19;20015;-74
2023/10/27 07:12:43;;;;;;;16.60;2.80;;;15.00;99.90;;;;;;7378085;19;20018;-74
2023/10/27 07:15:15;;;;;;;18.25;3.20;;;14.90;99.90;;;;;;7399951;19;20007;-74
2023/10/27 07:17:44;;;;;;;17.48;2.85;;;15.10;99.90;;;;;;7377154;19;20006;-74
2023/10/27 07:20:13;;;;;;;14.43;2.60;;;15.10;99.90;;;;;;7377466;19;20107;-74
2023/10/27 07:22:42;;;;;;;17.23;2.75;;;15.10;99.90;;;;;;7378011;19;20055;-74
2023/10/27 07:25:11;;;;;;;24.17;2.85;;;15.10;99.90;;;;;;7377889;19;20015;-74
2023/10/27 07:27:40;;;;;;;21.52;2.78;;;15.10;99.90;;;;;;7378283;19;20047;-75
2023/10/27 07:30:10;;;;;;;16.67;3.05;;;15.10;99.90;;;;;;7399490;19;20023;-75
2023/10/27 07:32:41;;;;;;;23.30;3.17;;;15.20;99.90;;;;;;7376802;19;20007;-74
2023/10/27 07:35:10;;;;;;;16.95;2.67;;;15.30;99.90;;;;;;7377069;19;20007;-75
2023/10/27 07:37:39;;;;;;;11.13;2.10;;;15.20;99.90;;;;;;7377722;19;20426;-78
2023/10/27 07:40:09;;;;;;;14.00;2.10;;;15.20;99.90;;;;;;7377608;19;20023;-76
2023/10/27 07:42:38;;;;;;;17.67;2.70;;;15.30;99.90;;;;;;7377764;19;20006;-76
2023/10/27 07:45:08;;;;;;;16.27;2.35;;;15.30;99.90;;;;;;7399872;19;20010;-77
2023/10/27 07:47:37;;;;;;;14.98;2.40;;;15.30;99.90;;;;;;7377073;19;20468;-76
2023/10/27 07:50:09;;;;;;;13.18;2.38;;;15.30;99.90;;;;;;7376802;19;20015;-75
2023/10/27 07:52:39;;;;;;;15.60;2.60;;;15.20;99.90;;;;;;7377150;19;20002;-77
2023/10/27 07:55:08;;;;;;;13.98;2.83;;;15.30;99.90;;;;;;7379497;19;20020;-77
2023/10/27 07:57:37;;;;;;;21.17;2.72;;;15.40;99.90;;;;;;7385004;19;20346;-76
2023/10/27 08:00:09;;;;;;;15.48;2.45;;;15.40;99.90;;;;;;7406130;19;20006;-76
2023/10/27 08:02:38;;;;;;;11.73;2.30;;;15.20;99.90;;;;;;7384785;19;20006;-77
2023/10/27 08:05:12;;;;;;;20.70;2.67;;;15.30;99.90;;;;;;7384998;19;20224;-77
2023/10/27 08:07:44;;;;;;;19.10;2.80;;;15.30;99.90;;;;;;7384264;19;20011;-77
2023/10/27 08:10:13;;;;;;;14.77;2.90;;;15.30;99.90;;;;;;7383000;19;20102;-78
2023/10/27 08:12:41;;;;;;;16.60;2.38;;;15.30;99.90;;;;;;7384944;19;20027;-77
2023/10/27 08:15:10;;;;;;;15.07;2.13;;;15.40;99.90;;;;;;7406304;19;20090;-75
2023/10/27 08:17:39;;;;;;;13.32;2.30;;;15.40;99.90;;;;;;7383476;19;20020;-74
2023/10/27 08:20:12;;;;;;;17.45;2.10;;;15.20;99.90;;;;;;7383079;19;20019;-74
2023/10/27 08:22:40;;;;;;;10.07;2.30;;;15.30;99.90;;;;;;7383846;19;20028;-73
2023/10/27 08:25:09;;;;;;;13.30;2.45;;;15.40;99.90;;;;;;7383285;19;20062;-74
2023/10/27 08:27:38;;;;;;;9.77;2.10;;;15.40;99.80;;;;;;7380997;19;20007;-74
2023/10/27 08:30:08;;;;;;;9.50;1.77;;;15.50;99.80;;;;;;7405240;19;20070;-74
2023/10/27 08:32:37;;;;;;;14.10;2.20;;;15.50;99.90;;;;;;7382537;19;20022;-74
2023/10/27 08:35:06;;;;;;;11.52;1.98;;;15.60;99.90;;;;;;7382887;19;20075;-74
2023/10/27 08:37:38;;;;;;;10.13;1.60;;;15.60;99.60;;;;;;7383143;19;20011;-75
2023/10/27 08:40:11;;;;;;;;;;;15.60;99.30;;;;;;7383644;19;20405;-74
2023/10/27 08:42:42;;;;;;;7.90;1.85;;;15.60;99.60;;;;;;7382611;19;19924;-76
2023/10/27 08:45:12;;;;;;;18.58;2.55;;;15.50;99.60;;;;;;7407717;19;20002;-77
2023/10/27 08:47:43;;;;;;;27.05;3.08;;;15.60;99.80;;;;;;7384250;19;20031;-78
2023/10/27 08:50:12;;;;;;;14.23;2.53;;;15.60;99.50;;;;;;7382956;19;20030;-78
2023/10/27 08:52:44;;;;;;;13.80;2.53;;;15.60;99.60;;;;;;7384253;19;20027;-77
2023/10/27 08:55:13;;;;;;;22.52;3.28;;;15.50;99.60;;;;;;7382382;19;20373;-75
2023/10/27 08:57:42;;;;;;;21.80;2.33;;;15.60;99.60;;;;;;7382074;19;20240;-75
2023/10/27 09:00:12;;;;;;;16.77;2.65;;;15.60;99.50;;;;;;7404645;19;20062;-76
2023/10/27 09:02:41;;;;;;;19.85;2.72;;;15.60;99.70;;;;;;7382379;19;20078;-74
2023/10/27 09:05:11;;;;;;;20.88;2.63;;;15.70;99.90;;;;;;7379581;19;20009;-75
2023/10/27 09:07:40;;;;;;;16.33;2.47;;;15.80;99.80;;;;;;7380126;19;20002;-74
2023/10/27 09:10:13;;;;;;;16.95;2.45;;;15.60;99.70;;;;;;7381942;19;20016;-75
2023/10/27 09:12:41;;;;;;;14.82;2.50;;;15.70;99.60;;;;;;7382421;19;20003;-75
2023/10/27 09:15:13;;;;;;;10.15;1.83;;;15.60;99.70;;;;;;7402792;19;20070;-76
2023/10/27 09:17:54;;;;;;;22.00;2.67;;;15.50;99.60;;;;;;7384275;19;20486;-76
2023/10/27 09:20:24;;;;;;;15.98;2.60;;;15.40;99.60;;;;;;7384819;19;20025;-76
2023/10/27 09:22:59;;;;;;;25.92;2.67;;;15.20;99.90;;;;;;7390238;19;20015;-78
2023/10/27 09:25:35;;;;;;;11.52;2.25;;;15.30;99.90;;;;;;7387249;19;20622;-77
2023/10/27 09:28:06;;;;;;;19.65;2.58;;;15.40;99.90;;;;;;7382728;19;20034;-76
2023/10/27 09:30:37;;;;;;;21.20;2.85;;;15.60;99.90;;;;;;7390506;19;20020;-78
2023/10/27 09:33:18;;;;;;;15.45;2.53;;;15.70;99.90;;;;;;7404159;19;20024;-77
2023/10/27 09:35:49;;;;;;;16.88;2.55;;;15.70;99.80;;;;;;7382172;19;20010;-75
2023/10/27 09:38:20;;;;;;;19.88;3.08;;;15.80;99.70;;;;;;7380439;19;20027;-74
2023/10/27 09:40:53;;;;;;;16.45;2.90;;;15.80;99.60;;;;;;7382912;19;20002;-74
2023/10/27 09:43:23;;;;;;;25.48;3.25;;;15.90;99.70;;;;;;7380235;19;20006;-73
2023/10/27 09:45:55;;;;;;;17.05;2.67;;;15.90;99.10;;;;;;7379069;19;20269;-76
2023/10/27 09:48:32;;;;;;;22.95;2.95;;;16.00;99.10;;;;;;7380892;19;20014;-77
2023/10/27 09:51:04;;;;;;;14.93;2.95;;;15.80;98.90;;;;;;7401528;19;20010;-77
2023/10/27 09:53:33;;;;;;;20.05;2.25;;;15.80;99.20;;;;;;7381057;19;20026;-75
2023/10/27 09:56:06;;;;;;;12.65;2.50;;;15.90;99.20;;;;;;7381296;19;20002;-76
2023/10/27 09:58:36;;;;;;;21.10;2.67;;;15.90;99.10;;;;;;7380657;19;20018;-77
2023/10/27 10:01:06;;;;;;;23.40;2.73;;;15.90;99.10;;;;;;7380399;19;19999;-76
2023/10/27 10:03:35;;;;;;;31.45;3.20;;;16.00;98.90;;;;;;7380765;19;20058;-76
2023/10/27 10:06:15;;;;;;;22.35;2.75;;;15.90;98.90;;;;;;7401661;19;20015;-73
2023/10/27 10:09:06;;;;;;;26.48;3.25;;;16.00;99.20;;;;;;7379675;19;20253;-73
2023/10/27 10:11:56;;;;;;;14.35;2.60;;;16.00;99.10;;;;;;7379085;19;20030;-73
2023/10/27 10:17:00;;;;;;;16.17;2.47;;;16.10;98.40;;;;;;7368166;19;20063;-75
2023/10/27 10:19:50;;;;;;;16.00;2.58;;;16.10;98.30;;;;;;7379669;19;20002;-75
2023/10/27 10:22:48;;;;;;;19.00;2.47;;;16.10;98.40;;;;;;7379679;19;20007;-74
2023/10/27 10:25:33;;;;;;;20.63;2.22;;;16.10;98.40;;;;;;7380184;19;20066;-76
2023/10/27 10:28:27;;;;;;;22.58;2.80;;;15.90;98.40;;;;;;7378760;19;20027;-74
2023/10/27 10:31:25;;;;;;;18.40;2.97;;;15.80;98.90;;;;;;7379595;19;20007;-75
2023/10/27 10:34:14;;;;;;;24.60;2.92;;;15.60;99.30;;;;;;7379419;19;20063;-75
2023/10/27 10:36:43;;;;;;;19.88;2.70;;;15.70;99.90;;;;;;7380750;19;20033;-75
2023/10/27 10:39:14;;;;;;;20.23;2.38;;;15.60;99.70;;;;;;7402373;19;20108;-75
2023/10/27 10:42:03;;;;;;;20.65;2.92;;;15.70;99.70;;;;;;7380191;19;20007;-76
2023/10/27 10:44:35;;;;;;;16.85;2.92;;;15.80;99.70;;;;;;7379674;19;20003;-78
2023/10/27 10:47:23;;;;;;;25.20;2.92;;;15.70;99.50;;;;;;7380241;19;20050;-76
2023/10/27 10:49:52;;;;;;;16.08;2.25;;;15.80;99.40;;;;;;7379495;19;20078;-77
2023/10/27 10:52:23;;;;;;;13.60;2.45;;;15.90;99.50;;;;;;7379378;19;20003;-77
2023/10/27 10:54:54;;;;;;;25.73;3.22;;;15.80;98.80;;;;;;7380098;19;20007;-76
2023/10/27 10:57:24;;;;;;;14.90;2.58;;;15.80;99.10;;;;;;7389242;19;20244;-74
2023/10/27 10:59:59;;;;;;;22.02;2.67;;;15.90;98.70;;;;;;7400296;19;20074;-73
2023/10/27 11:02:27;;;;;;;16.08;2.00;;;16.00;98.60;;;;;;7378100;19;20006;-74
2023/10/27 11:04:57;;;;;;;15.50;2.85;;;15.90;98.40;;;;;;7378422;19;20002;-73
2023/10/27 11:07:28;;;;;;;23.05;2.78;;;15.80;98.70;;;;;;7378228;19;20023;-74
2023/10/27 11:10:17;;;;;;;16.02;2.70;;;16.00;98.70;;;;;;7378425;19;20020;-74
2023/10/27 11:12:48;;;;;;;15.45;2.85;;;16.10;98.50;;;;;;7378295;19;20362;-74
2023/10/27 11:15:48;;;;;;;21.73;2.92;;;16.10;98.20;;;;;;7399625;19;20353;-74
2023/10/27 11:18:18;;;;;;;17.83;2.65;;;16.10;97.90;;;;;;7277320;19;2004556;-74
2023/10/27 11:20:49;;;;;;;14.57;2.47;;;16.00;98.40;;;;;;7402888;19;20024;-74
2023/10/27 11:23:19;;;;;;;16.53;2.60;;;16.00;98.50;;;;;;7379387;19;20029;-74
2023/10/27 11:25:48;;;;;;;21.33;2.83;;;16.20;98.20;;;;;;7380320;19;20031;-74
2023/10/27 11:28:21;;;;;;;18.65;2.97;;;16.30;97.90;;;;;;7378828;19;20010;-74
2023/10/27 11:31:07;;;;;;;16.77;2.70;;;16.50;97.80;;;;;;7384201;19;20435;-74
2023/10/27 11:33:36;;;;;;;20.67;3.17;;;16.50;97.40;;;;;;7387287;19;20031;-73
2023/10/27 11:36:06;;;;;;;24.15;2.67;;;16.50;97.20;;;;;;7406781;19;20048;-73
2023/10/27 11:38:35;;;;;;;16.35;2.60;;;16.60;97.10;;;;;;7384442;19;20003;-72
2023/10/27 11:41:14;;;;;;;15.48;2.47;;;16.70;97.00;;;;;;7384650;19;20268;-73
2023/10/27 11:43:43;;;;;;;15.30;2.30;;;16.70;97.10;;;;;;7385073;19;20013;-73
2023/10/27 11:46:17;;;;;;;19.02;3.15;;;16.70;97.00;;;;;;7388379;19;20027;-76
2023/10/27 11:48:48;;;;;;;19.92;2.65;;;16.80;97.30;;;;;;7387655;19;20027;-76
2023/10/27 11:51:17;;;;;;;20.60;2.80;;;16.80;96.50;;;;;;7408989;19;20345;-76
2023/10/27 11:53:47;;;;;;;19.77;3.40;;;16.80;96.40;;;;;;7386371;19;20285;-76
2023/10/27 11:56:16;;;;;;;25.63;3.40;;;16.70;96.30;;;;;;7386554;19;20260;-77
2023/10/27 11:58:44;;;;;;;20.02;2.78;;;16.60;96.40;;;;;;7387258;19;20076;-76
2023/10/27 12:01:16;;;;;;;21.90;2.92;;;16.70;96.40;;;;;;7387525;19;19999;-76
2023/10/27 12:03:44;;;;;;;;;;;16.80;95.80;;;;;;7385191;19;20015;-74
2023/10/27 12:06:13;;;;;;;20.17;2.88;;;16.90;96.00;;;;;;7408353;19;19928;-74
2023/10/27 12:08:42;;;;;;;16.52;2.13;;;16.90;95.90;;;;;;7383518;19;20003;-75
2023/10/27 12:11:14;;;;;;;24.35;3.05;;;16.90;95.90;;;;;;7386115;19;20014;-75
2023/10/27 12:13:42;;;;;;;18.38;2.55;;;17.00;96.00;;;;;;7386587;19;20405;-76
2023/10/27 12:16:11;;;;;;;24.83;3.08;;;16.80;96.00;;;;;;7385343;19;20226;-75
2023/10/27 12:18:43;;;;;;;16.92;2.67;;;16.90;95.90;;;;;;7388315;19;20010;-75
2023/10/27 12:21:09;;;;;;;15.38;2.80;;;16.80;95.70;;;;;;7407977;19;20020;-74
2023/10/27 12:23:38;;;;;;;17.25;2.60;;;16.90;96.00;;;;;;7386163;19;20007;-73
2023/10/27 12:26:07;;;;;;;16.58;3.05;;;16.80;96.60;;;;;;7386223;19;20397;-76
2023/10/27 12:28:36;;;;;;;19.85;3.13;;;16.90;96.30;;;;;;7385046;19;20023;-75
2023/10/27 12:31:06;;;;;;;21.35;2.85;;;16.90;96.20;;;;;;7385698;19;20256;-75
2023/10/27 12:33:35;;;;;;;19.90;3.15;;;16.90;96.20;;;;;;7385939;19;20006;-75
2023/10/27 12:36:12;;;;;;;20.30;2.90;;;17.00;96.40;;;;;;7408938;19;20006;-76
2023/10/27 12:38:41;;;;;;;17.80;3.28;;;17.10;96.60;;;;;;7386641;19;20005;-76
2023/10/27 12:41:13;;;;;;;18.58;2.88;;;17.00;96.40;;;;;;7383116;19;20094;-76
2023/10/27 12:43:42;;;;;;;30.30;3.38;;;17.10;96.30;;;;;;7385849;19;20007;-74
2023/10/27 12:46:12;;;;;;;20.25;3.20;;;17.20;95.80;;;;;;7385661;19;20312;-77
2023/10/27 12:48:41;;;;;;;18.58;2.83;;;17.30;95.80;;;;;;7384407;19;20019;-74
2023/10/27 12:51:12;;;;;;;16.00;2.80;;;17.30;95.60;;;;;;7406952;19;20010;-73
2023/10/27 12:53:43;;;;;;;24.05;2.97;;;17.30;95.90;;;;;;7385422;19;20070;-79
2023/10/27 12:56:12;;;;;;;22.92;2.90;;;17.30;95.50;;;;;;7384674;19;20029;-76
2023/10/27 12:58:41;;;;;;;26.67;3.30;;;17.30;95.50;;;;;;7385189;19;20421;-76